sensor_id;sensor_type;location;lat;lon;timestamp;P1;durP1;ratioP1;P2;durP2;ratioP2
11651;SDS011;5882;48.818;9.114;2023-08-17T00:00:42;4.13;;;3.72;;
11651;SDS011;5882;48.818;9.114;2023-08-17T00:03:27;4.05;;;3.70;;
11651;SDS011;5882;48.818;9.114;2023-08-17T00:06:12;5.47;;;4.97;;
11651;SDS011;5882;48.818;9.114;2023-08-17T00:08:59;4.10;;;3.80;;
11651;SDS011;5882;48.818;9.114;2023-08-17T00:11:43;4.80;;;4.40;;
11651;SDS011;5882;48.818;9.114;2023-08-17T00:14:29;4.60;;;4.20;;
11651;SDS011;5882;48.818;9.114;2023-08-17T00:17:14;4.57;;;4.18;;
11651;SDS011;5882;48.818;9.114;2023-08-17T00:19:59;3.85;;;3.55;;
11651;SDS011;5882;48.818;9.114;2023-08-17T00:22:44;4.20;;;3.83;;
11651;SDS011;5882;48.818;9.114;2023-08-17T00:25:31;4.25;;;3.85;;
11651;SDS011;5882;48.818;9.114;2023-08-17T00:28:16;4.03;;;3.53;;
11651;SDS011;5882;48.818;9.114;2023-08-17T00:31:01;3.83;;;3.50;;
11651;SDS011;5882;48.818;9.114;2023-08-17T00:33:49;4.55;;;3.85;;
11651;SDS011;5882;48.818;9.114;2023-08-17T00:36:34;3.85;;;3.55;;
11651;SDS011;5882;48.818;9.114;2023-08-17T00:39:20;4.45;;;4.05;;
11651;SDS011;5882;48.818;9.114;2023-08-17T00:42:06;4.38;;;3.97;;
11651;SDS011;5882;48.818;9.114;2023-08-17T00:44:53;3.75;;;3.47;;
11651;SDS011;5882;48.818;9.114;2023-08-17T00:47:38;3.80;;;3.50;;
11651;SDS011;5882;48.818;9.114;2023-08-17T00:50:24;4.78;;;3.45;;
11651;SDS011;5882;48.818;9.114;2023-08-17T00:53:09;4.10;;;3.80;;
11651;SDS011;5882;48.818;9.114;2023-08-17T00:55:57;3.92;;;3.60;;
11651;SDS011;5882;48.818;9.114;2023-08-17T00:58:44;4.30;;;3.38;;
11651;SDS011;5882;48.818;9.114;2023-08-17T01:01:31;3.53;;;3.22;;
11651;SDS011;5882;48.818;9.114;2023-08-17T01:04:19;3.90;;;3.60;;
11651;SDS011;5882;48.818;9.114;2023-08-17T01:07:04;3.83;;;3.53;;
11651;SDS011;5882;48.818;9.114;2023-08-17T01:09:49;3.90;;;3.60;;
11651;SDS011;5882;48.818;9.114;2023-08-17T01:12:36;3.95;;;3.65;;
11651;SDS011;5882;48.818;9.114;2023-08-17T01:15:24;3.90;;;3.42;;
11651;SDS011;5882;48.818;9.114;2023-08-17T01:18:15;4.15;;;3.75;;
11651;SDS011;5882;48.818;9.114;2023-08-17T01:21:02;3.92;;;3.63;;
11651;SDS011;5882;48.818;9.114;2023-08-17T01:23:48;3.88;;;3.58;;
11651;SDS011;5882;48.818;9.114;2023-08-17T01:26:36;4.35;;;3.95;;
11651;SDS011;5882;48.818;9.114;2023-08-17T01:29:21;3.80;;;3.50;;
11651;SDS011;5882;48.818;9.114;2023-08-17T01:32:08;3.53;;;3.22;;
11651;SDS011;5882;48.818;9.114;2023-08-17T01:34:56;4.80;;;4.15;;
11651;SDS011;5882;48.818;9.114;2023-08-17T01:37:42;3.83;;;3.53;;
11651;SDS011;5882;48.818;9.114;2023-08-17T01:40:30;4.78;;;4.03;;
11651;SDS011;5882;48.818;9.114;2023-08-17T01:43:16;3.80;;;3.50;;
11651;SDS011;5882;48.818;9.114;2023-08-17T01:46:01;3.92;;;3.63;;
11651;SDS011;5882;48.818;9.114;2023-08-17T01:48:46;4.15;;;3.75;;
11651;SDS011;5882;48.818;9.114;2023-08-17T01:51:32;4.22;;;3.88;;
11651;SDS011;5882;48.818;9.114;2023-08-17T01:54:20;5.30;;;3.85;;
11651;SDS011;5882;48.818;9.114;2023-08-17T01:57:07;4.32;;;3.92;;
11651;SDS011;5882;48.818;9.114;2023-08-17T01:59:52;4.05;;;3.75;;
11651;SDS011;5882;48.818;9.114;2023-08-17T02:02:37;3.47;;;3.17;;
11651;SDS011;5882;48.818;9.114;2023-08-17T02:05:22;4.05;;;3.65;;
11651;SDS011;5882;48.818;9.114;2023-08-17T02:08:07;4.10;;;3.80;;
11651;SDS011;5882;48.818;9.114;2023-08-17T02:10:55;3.15;;;2.95;;
11651;SDS011;5882;48.818;9.114;2023-08-17T02:13:41;3.60;;;3.30;;
11651;SDS011;5882;48.818;9.114;2023-08-17T02:16:27;5.55;;;3.65;;
11651;SDS011;5882;48.818;9.114;2023-08-17T02:19:11;4.22;;;3.83;;
11651;SDS011;5882;48.818;9.114;2023-08-17T02:21:56;3.80;;;3.50;;
11651;SDS011;5882;48.818;9.114;2023-08-17T02:24:41;3.47;;;3.17;;
11651;SDS011;5882;48.818;9.114;2023-08-17T02:27:27;4.50;;;4.10;;
11651;SDS011;5882;48.818;9.114;2023-08-17T02:30:15;3.95;;;3.65;;
11651;SDS011;5882;48.818;9.114;2023-08-17T02:33:01;4.43;;;4.03;;
11651;SDS011;5882;48.818;9.114;2023-08-17T02:35:47;4.25;;;3.95;;
11651;SDS011;5882;48.818;9.114;2023-08-17T02:38:32;4.25;;;3.85;;
11651;SDS011;5882;48.818;9.114;2023-08-17T02:41:17;3.70;;;3.40;;
11651;SDS011;5882;48.818;9.114;2023-08-17T02:44:06;3.92;;;3.63;;
11651;SDS011;5882;48.818;9.114;2023-08-17T02:46:53;3.95;;;3.55;;
11651;SDS011;5882;48.818;9.114;2023-08-17T02:49:38;4.72;;;3.85;;
11651;SDS011;5882;48.818;9.114;2023-08-17T02:52:23;3.58;;;3.28;;
11651;SDS011;5882;48.818;9.114;2023-08-17T02:55:11;3.83;;;3.50;;
11651;SDS011;5882;48.818;9.114;2023-08-17T02:57:56;4.13;;;3.83;;
11651;SDS011;5882;48.818;9.114;2023-08-17T03:00:41;3.83;;;3.53;;
11651;SDS011;5882;48.818;9.114;2023-08-17T03:03:28;4.97;;;4.25;;
11651;SDS011;5882;48.818;9.114;2023-08-17T03:06:13;3.78;;;3.50;;
11651;SDS011;5882;48.818;9.114;2023-08-17T03:08:58;3.80;;;3.50;;
11651;SDS011;5882;48.818;9.114;2023-08-17T03:11:46;3.50;;;3.20;;
11651;SDS011;5882;48.818;9.114;2023-08-17T03:14:30;4.07;;;3.67;;
11651;SDS011;5882;48.818;9.114;2023-08-17T03:17:18;4.05;;;3.65;;
11651;SDS011;5882;48.818;9.114;2023-08-17T03:20:06;4.18;;;3.78;;
11651;SDS011;5882;48.818;9.114;2023-08-17T03:22:51;4.22;;;3.83;;
11651;SDS011;5882;48.818;9.114;2023-08-17T03:25:36;4.35;;;3.92;;
11651;SDS011;5882;48.818;9.114;2023-08-17T03:28:21;4.43;;;4.00;;
11651;SDS011;5882;48.818;9.114;2023-08-17T03:31:08;6.10;;;4.53;;
11651;SDS011;5882;48.818;9.114;2023-08-17T03:33:53;4.88;;;4.35;;
11651;SDS011;5882;48.818;9.114;2023-08-17T03:36:41;5.47;;;4.88;;
11651;SDS011;5882;48.818;9.114;2023-08-17T03:39:26;5.30;;;4.78;;
11651;SDS011;5882;48.818;9.114;2023-08-17T03:42:12;4.75;;;4.25;;
11651;SDS011;5882;48.818;9.114;2023-08-17T03:44:57;5.50;;;4.72;;
11651;SDS011;5882;48.818;9.114;2023-08-17T03:47:43;6.18;;;4.75;;
11651;SDS011;5882;48.818;9.114;2023-08-17T03:50:28;5.40;;;4.63;;
11651;SDS011;5882;48.818;9.114;2023-08-17T03:53:15;5.20;;;4.47;;
11651;SDS011;5882;48.818;9.114;2023-08-17T03:56:00;5.50;;;4.63;;
11651;SDS011;5882;48.818;9.114;2023-08-17T03:58:45;6.20;;;4.88;;
11651;SDS011;5882;48.818;9.114;2023-08-17T04:01:30;4.43;;;4.03;;
11651;SDS011;5882;48.818;9.114;2023-08-17T04:04:15;5.40;;;4.68;;
11651;SDS011;5882;48.818;9.114;2023-08-17T04:07:00;5.68;;;4.95;;
11651;SDS011;5882;48.818;9.114;2023-08-17T04:09:46;6.00;;;5.40;;
11651;SDS011;5882;48.818;9.114;2023-08-17T04:12:32;6.82;;;4.88;;
11651;SDS011;5882;48.818;9.114;2023-08-17T04:15:16;5.05;;;4.47;;
11651;SDS011;5882;48.818;9.114;2023-08-17T04:18:03;5.45;;;4.95;;
11651;SDS011;5882;48.818;9.114;2023-08-17T04:20:48;5.07;;;4.57;;
11651;SDS011;5882;48.818;9.114;2023-08-17T04:23:35;5.47;;;4.65;;
11651;SDS011;5882;48.818;9.114;2023-08-17T04:26:22;6.30;;;4.95;;
11651;SDS011;5882;48.818;9.114;2023-08-17T04:29:07;4.70;;;4.30;;
11651;SDS011;5882;48.818;9.114;2023-08-17T04:31:52;5.18;;;4.68;;
11651;SDS011;5882;48.818;9.114;2023-08-17T04:34:37;5.68;;;4.85;;
11651;SDS011;5882;48.818;9.114;2023-08-17T04:37:22;5.63;;;5.07;;
11651;SDS011;5882;48.818;9.114;2023-08-17T04:40:08;6.22;;;5.38;;
11651;SDS011;5882;48.818;9.114;2023-08-17T04:42:55;7.03;;;5.20;;
11651;SDS011;5882;48.818;9.114;2023-08-17T04:45:40;5.47;;;4.45;;
11651;SDS011;5882;48.818;9.114;2023-08-17T04:48:25;6.97;;;5.28;;
11651;SDS011;5882;48.818;9.114;2023-08-17T04:51:10;5.25;;;4.75;;
11651;SDS011;5882;48.818;9.114;2023-08-17T04:53:55;5.40;;;4.80;;
11651;SDS011;5882;48.818;9.114;2023-08-17T04:56:39;6.25;;;4.75;;
11651;SDS011;5882;48.818;9.114;2023-08-17T04:59:28;6.05;;;4.85;;
11651;SDS011;5882;48.818;9.114;2023-08-17T05:02:14;6.28;;;5.47;;
11651;SDS011;5882;48.818;9.114;2023-08-17T05:04:59;4.47;;;4.07;;
11651;SDS011;5882;48.818;9.114;2023-08-17T05:07:44;5.55;;;4.63;;
11651;SDS011;5882;48.818;9.114;2023-08-17T05:10:30;6.13;;;4.82;;
11651;SDS011;5882;48.818;9.114;2023-08-17T05:13:16;5.05;;;4.65;;
11651;SDS011;5882;48.818;9.114;2023-08-17T05:16:03;5.35;;;4.85;;
11651;SDS011;5882;48.818;9.114;2023-08-17T05:18:48;5.35;;;4.85;;
11651;SDS011;5882;48.818;9.114;2023-08-17T05:21:34;4.45;;;4.03;;
11651;SDS011;5882;48.818;9.114;2023-08-17T05:24:20;4.82;;;4.40;;
11651;SDS011;5882;48.818;9.114;2023-08-17T05:27:05;5.22;;;4.72;;
11651;SDS011;5882;48.818;9.114;2023-08-17T05:29:50;4.95;;;4.47;;
11651;SDS011;5882;48.818;9.114;2023-08-17T05:32:36;5.03;;;4.53;;
11651;SDS011;5882;48.818;9.114;2023-08-17T05:35:21;5.15;;;4.65;;
11651;SDS011;5882;48.818;9.114;2023-08-17T05:38:06;5.50;;;4.78;;
11651;SDS011;5882;48.818;9.114;2023-08-17T05:40:54;5.80;;;5.18;;
11651;SDS011;5882;48.818;9.114;2023-08-17T05:43:39;5.85;;;5.28;;
11651;SDS011;5882;48.818;9.114;2023-08-17T05:46:24;5.72;;;5.15;;
11651;SDS011;5882;48.818;9.114;2023-08-17T05:49:10;6.20;;;4.90;;
11651;SDS011;5882;48.818;9.114;2023-08-17T05:51:55;5.15;;;4.65;;
11651;SDS011;5882;48.818;9.114;2023-08-17T05:54:40;6.07;;;4.88;;
11651;SDS011;5882;48.818;9.114;2023-08-17T05:57:26;5.93;;;5.32;;
11651;SDS011;5882;48.818;9.114;2023-08-17T06:00:11;6.13;;;4.90;;
11651;SDS011;5882;48.818;9.114;2023-08-17T06:02:57;6.45;;;5.45;;
11651;SDS011;5882;48.818;9.114;2023-08-17T06:05:46;6.00;;;5.40;;
11651;SDS011;5882;48.818;9.114;2023-08-17T06:08:31;6.15;;;5.55;;
11651;SDS011;5882;48.818;9.114;2023-08-17T06:11:17;6.03;;;5.47;;
11651;SDS011;5882;48.818;9.114;2023-08-17T06:14:04;5.88;;;5.28;;
11651;SDS011;5882;48.818;9.114;2023-08-17T06:16:49;7.13;;;5.95;;
11651;SDS011;5882;48.818;9.114;2023-08-17T06:19:37;6.13;;;5.50;;
11651;SDS011;5882;48.818;9.114;2023-08-17T06:22:25;6.30;;;5.70;;
11651;SDS011;5882;48.818;9.114;2023-08-17T06:25:09;6.53;;;5.60;;
11651;SDS011;5882;48.818;9.114;2023-08-17T06:27:54;7.45;;;6.68;;
11651;SDS011;5882;48.818;9.114;2023-08-17T06:30:40;6.15;;;5.55;;
11651;SDS011;5882;48.818;9.114;2023-08-17T06:33:26;6.05;;;5.28;;
11651;SDS011;5882;48.818;9.114;2023-08-17T06:36:12;6.43;;;5.80;;
11651;SDS011;5882;48.818;9.114;2023-08-17T06:39:01;6.63;;;6.03;;
11651;SDS011;5882;48.818;9.114;2023-08-17T06:41:46;6.90;;;6.20;;
11651;SDS011;5882;48.818;9.114;2023-08-17T06:44:31;6.10;;;5.50;;
11651;SDS011;5882;48.818;9.114;2023-08-17T06:47:16;5.85;;;5.32;;
11651;SDS011;5882;48.818;9.114;2023-08-17T06:50:01;6.47;;;5.82;;
11651;SDS011;5882;48.818;9.114;2023-08-17T06:52:46;7.03;;;5.65;;
11651;SDS011;5882;48.818;9.114;2023-08-17T06:55:33;7.88;;;6.32;;
11651;SDS011;5882;48.818;9.114;2023-08-17T06:58:18;6.18;;;5.57;;
11651;SDS011;5882;48.818;9.114;2023-08-17T07:01:03;6.63;;;5.97;;
11651;SDS011;5882;48.818;9.114;2023-08-17T07:03:48;8.43;;;6.82;;
11651;SDS011;5882;48.818;9.114;2023-08-17T07:06:34;6.90;;;6.20;;
11651;SDS011;5882;48.818;9.114;2023-08-17T07:09:22;6.95;;;6.18;;
11651;SDS011;5882;48.818;9.114;2023-08-17T07:12:09;6.28;;;5.70;;
11651;SDS011;5882;48.818;9.114;2023-08-17T07:14:54;6.43;;;5.82;;
11651;SDS011;5882;48.818;9.114;2023-08-17T07:17:39;6.53;;;5.82;;
11651;SDS011;5882;48.818;9.114;2023-08-17T07:20:24;6.10;;;5.05;;
11651;SDS011;5882;48.818;9.114;2023-08-17T07:23:09;6.53;;;5.57;;
11651;SDS011;5882;48.818;9.114;2023-08-17T07:25:55;7.43;;;5.63;;
11651;SDS011;5882;48.818;9.114;2023-08-17T07:28:49;6.65;;;5.95;;
11651;SDS011;5882;48.818;9.114;2023-08-17T07:31:40;6.28;;;5.72;;
11651;SDS011;5882;48.818;9.114;2023-08-17T07:34:32;7.03;;;5.25;;
11651;SDS011;5882;48.818;9.114;2023-08-17T07:37:20;7.93;;;5.90;;
11651;SDS011;5882;48.818;9.114;2023-08-17T07:40:06;7.05;;;6.35;;
11651;SDS011;5882;48.818;9.114;2023-08-17T07:42:52;6.43;;;5.82;;
11651;SDS011;5882;48.818;9.114;2023-08-17T07:45:38;6.85;;;6.05;;
11651;SDS011;5882;48.818;9.114;2023-08-17T07:48:23;5.78;;;5.28;;
11651;SDS011;5882;48.818;9.114;2023-08-17T07:51:09;6.47;;;5.88;;
11651;SDS011;5882;48.818;9.114;2023-08-17T07:53:54;6.60;;;5.90;;
11651;SDS011;5882;48.818;9.114;2023-08-17T07:56:39;7.88;;;7.10;;
11651;SDS011;5882;48.818;9.114;2023-08-17T07:59:25;6.60;;;6.00;;
11651;SDS011;5882;48.818;9.114;2023-08-17T08:02:11;6.38;;;5.72;;
11651;SDS011;5882;48.818;9.114;2023-08-17T08:04:56;6.43;;;5.78;;
11651;SDS011;5882;48.818;9.114;2023-08-17T08:07:42;6.32;;;5.72;;
11651;SDS011;5882;48.818;9.114;2023-08-17T08:10:28;6.40;;;5.80;;
11651;SDS011;5882;48.818;9.114;2023-08-17T08:13:13;6.00;;;5.50;;
11651;SDS011;5882;48.818;9.114;2023-08-17T08:15:59;6.18;;;5.57;;
11651;SDS011;5882;48.818;9.114;2023-08-17T08:18:46;7.00;;;6.28;;
11651;SDS011;5882;48.818;9.114;2023-08-17T08:21:31;6.72;;;6.13;;
11651;SDS011;5882;48.818;9.114;2023-08-17T08:24:16;6.50;;;5.55;;
11651;SDS011;5882;48.818;9.114;2023-08-17T08:27:02;6.53;;;5.70;;
11651;SDS011;5882;48.818;9.114;2023-08-17T08:29:47;6.68;;;5.25;;
11651;SDS011;5882;48.818;9.114;2023-08-17T08:32:32;7.63;;;6.47;;
11651;SDS011;5882;48.818;9.114;2023-08-17T08:35:19;6.63;;;6.05;;
11651;SDS011;5882;48.818;9.114;2023-08-17T08:38:06;5.75;;;5.25;;
11651;SDS011;5882;48.818;9.114;2023-08-17T08:40:52;6.85;;;6.03;;
11651;SDS011;5882;48.818;9.114;2023-08-17T08:43:39;6.68;;;6.05;;
11651;SDS011;5882;48.818;9.114;2023-08-17T08:46:26;6.82;;;5.68;;
11651;SDS011;5882;48.818;9.114;2023-08-17T08:49:12;6.85;;;6.15;;
11651;SDS011;5882;48.818;9.114;2023-08-17T08:51:58;6.97;;;6.30;;
11651;SDS011;5882;48.818;9.114;2023-08-17T08:54:44;6.18;;;5.60;;
11651;SDS011;5882;48.818;9.114;2023-08-17T08:57:32;6.18;;;5.65;;
11651;SDS011;5882;48.818;9.114;2023-08-17T09:00:18;7.43;;;6.72;;
11651;SDS011;5882;48.818;9.114;2023-08-17T09:03:03;6.00;;;5.40;;
11651;SDS011;5882;48.818;9.114;2023-08-17T09:05:50;5.43;;;4.93;;
11651;SDS011;5882;48.818;9.114;2023-08-17T09:08:39;5.68;;;5.10;;
11651;SDS011;5882;48.818;9.114;2023-08-17T09:11:25;6.20;;;5.60;;
11651;SDS011;5882;48.818;9.114;2023-08-17T09:14:10;6.72;;;6.13;;
11651;SDS011;5882;48.818;9.114;2023-08-17T09:16:55;5.95;;;5.45;;
11651;SDS011;5882;48.818;9.114;2023-08-17T09:19:45;5.30;;;4.82;;
11651;SDS011;5882;48.818;9.114;2023-08-17T09:22:39;6.68;;;5.97;;
11651;SDS011;5882;48.818;9.114;2023-08-17T09:26:04;6.07;;;5.47;;
11651;SDS011;5882;48.818;9.114;2023-08-17T09:28:51;6.03;;;5.43;;
11651;SDS011;5882;48.818;9.114;2023-08-17T09:31:38;5.55;;;5.00;;
11651;SDS011;5882;48.818;9.114;2023-08-17T09:34:24;4.88;;;4.22;;
11651;SDS011;5882;48.818;9.114;2023-08-17T09:37:09;5.68;;;5.18;;
11651;SDS011;5882;48.818;9.114;2023-08-17T09:45:12;6.30;;;5.47;;
11651;SDS011;5882;48.818;9.114;2023-08-17T09:48:03;5.47;;;4.97;;
11651;SDS011;5882;48.818;9.114;2023-08-17T09:50:48;6.07;;;5.53;;
11651;SDS011;5882;48.818;9.114;2023-08-17T09:53:35;5.45;;;4.95;;
11651;SDS011;5882;48.818;9.114;2023-08-17T09:56:23;5.60;;;5.10;;
11651;SDS011;5882;48.818;9.114;2023-08-17T09:59:09;5.55;;;5.05;;
11651;SDS011;5882;48.818;9.114;2023-08-17T10:01:55;6.05;;;5.50;;
11651;SDS011;5882;48.818;9.114;2023-08-17T10:04:42;5.07;;;4.68;;
11651;SDS011;5882;48.818;9.114;2023-08-17T10:07:30;5.97;;;5.15;;
11651;SDS011;5882;48.818;9.114;2023-08-17T10:10:22;4.85;;;4.45;;
11651;SDS011;5882;48.818;9.114;2023-08-17T10:13:10;5.00;;;4.53;;
11651;SDS011;5882;48.818;9.114;2023-08-17T10:16:01;5.03;;;4.63;;
11651;SDS011;5882;48.818;9.114;2023-08-17T10:18:49;6.00;;;5.50;;
11651;SDS011;5882;48.818;9.114;2023-08-17T10:21:36;5.38;;;4.95;;
11651;SDS011;5882;48.818;9.114;2023-08-17T10:24:22;6.07;;;5.47;;
11651;SDS011;5882;48.818;9.114;2023-08-17T10:27:08;5.65;;;5.15;;
11651;SDS011;5882;48.818;9.114;2023-08-17T10:29:54;5.95;;;5.40;;
11651;SDS011;5882;48.818;9.114;2023-08-17T10:32:40;6.28;;;5.20;;
11651;SDS011;5882;48.818;9.114;2023-08-17T10:35:30;5.43;;;4.68;;
11651;SDS011;5882;48.818;9.114;2023-08-17T10:38:16;5.93;;;5.43;;
11651;SDS011;5882;48.818;9.114;2023-08-17T10:41:08;6.25;;;5.70;;
11651;SDS011;5882;48.818;9.114;2023-08-17T10:43:54;6.50;;;5.90;;
11651;SDS011;5882;48.818;9.114;2023-08-17T10:46:39;5.75;;;5.25;;
11651;SDS011;5882;48.818;9.114;2023-08-17T10:49:27;6.00;;;5.47;;
11651;SDS011;5882;48.818;9.114;2023-08-17T10:52:14;5.65;;;5.15;;
11651;SDS011;5882;48.818;9.114;2023-08-17T10:54:59;5.38;;;4.88;;
11651;SDS011;5882;48.818;9.114;2023-08-17T10:57:44;5.15;;;4.70;;
11651;SDS011;5882;48.818;9.114;2023-08-17T11:00:33;5.07;;;3.80;;
11651;SDS011;5882;48.818;9.114;2023-08-17T11:03:19;5.95;;;5.38;;
11651;SDS011;5882;48.818;9.114;2023-08-17T11:06:14;5.68;;;5.18;;
11651;SDS011;5882;48.818;9.114;2023-08-17T11:09:07;5.20;;;4.65;;
11651;SDS011;5882;48.818;9.114;2023-08-17T11:11:56;5.38;;;4.88;;
11651;SDS011;5882;48.818;9.114;2023-08-17T11:14:44;7.32;;;5.30;;
11651;SDS011;5882;48.818;9.114;2023-08-17T11:17:29;6.13;;;5.63;;
11651;SDS011;5882;48.818;9.114;2023-08-17T11:20:14;6.18;;;5.63;;
11651;SDS011;5882;48.818;9.114;2023-08-17T11:23:00;6.00;;;5.50;;
11651;SDS011;5882;48.818;9.114;2023-08-17T11:25:47;5.88;;;5.28;;
11651;SDS011;5882;48.818;9.114;2023-08-17T11:28:32;7.20;;;5.65;;
11651;SDS011;5882;48.818;9.114;2023-08-17T11:31:20;6.40;;;5.80;;
11651;SDS011;5882;48.818;9.114;2023-08-17T11:34:05;6.07;;;5.50;;
11651;SDS011;5882;48.818;9.114;2023-08-17T11:36:53;6.03;;;5.35;;
11651;SDS011;5882;48.818;9.114;2023-08-17T11:39:38;5.53;;;5.03;;
11651;SDS011;5882;48.818;9.114;2023-08-17T11:42:25;5.72;;;5.22;;
11651;SDS011;5882;48.818;9.114;2023-08-17T11:45:10;5.13;;;4.72;;
11651;SDS011;5882;48.818;9.114;2023-08-17T11:47:55;5.07;;;4.68;;
11651;SDS011;5882;48.818;9.114;2023-08-17T11:50:40;5.55;;;5.05;;
11651;SDS011;5882;48.818;9.114;2023-08-17T11:53:25;5.43;;;4.95;;
11651;SDS011;5882;48.818;9.114;2023-08-17T11:56:17;5.93;;;4.75;;
11651;SDS011;5882;48.818;9.114;2023-08-17T11:59:13;5.68;;;5.28;;
11651;SDS011;5882;48.818;9.114;2023-08-17T12:02:01;5.78;;;5.18;;
11651;SDS011;5882;48.818;9.114;2023-08-17T12:04:47;5.25;;;4.85;;
11651;SDS011;5882;48.818;9.114;2023-08-17T12:07:32;4.88;;;4.47;;
11651;SDS011;5882;48.818;9.114;2023-08-17T12:10:18;5.70;;;5.20;;
11651;SDS011;5882;48.818;9.114;2023-08-17T12:13:05;5.15;;;4.65;;
11651;SDS011;5882;48.818;9.114;2023-08-17T12:15:52;5.75;;;4.38;;
11651;SDS011;5882;48.818;9.114;2023-08-17T12:18:44;5.18;;;4.68;;
11651;SDS011;5882;48.818;9.114;2023-08-17T12:21:29;5.28;;;4.78;;
11651;SDS011;5882;48.818;9.114;2023-08-17T12:24:25;4.95;;;4.55;;
11651;SDS011;5882;48.818;9.114;2023-08-17T12:27:21;4.55;;;4.15;;
11651;SDS011;5882;48.818;9.114;2023-08-17T12:30:14;5.28;;;4.45;;
11651;SDS011;5882;48.818;9.114;2023-08-17T12:33:01;3.97;;;3.67;;
11651;SDS011;5882;48.818;9.114;2023-08-17T12:35:46;4.50;;;4.10;;
11651;SDS011;5882;48.818;9.114;2023-08-17T12:38:36;4.85;;;4.25;;
11651;SDS011;5882;48.818;9.114;2023-08-17T12:42:15;4.60;;;4.15;;
11651;SDS011;5882;48.818;9.114;2023-08-17T12:45:02;4.40;;;3.83;;
11651;SDS011;5882;48.818;9.114;2023-08-17T12:47:49;3.88;;;3.58;;
11651;SDS011;5882;48.818;9.114;2023-08-17T12:50:36;3.67;;;3.38;;
11651;SDS011;5882;48.818;9.114;2023-08-17T12:53:22;4.03;;;3.72;;
11651;SDS011;5882;48.818;9.114;2023-08-17T12:56:07;3.60;;;3.30;;
11651;SDS011;5882;48.818;9.114;2023-08-17T12:58:54;3.75;;;3.45;;
11651;SDS011;5882;48.818;9.114;2023-08-17T13:01:39;3.50;;;3.22;;
11651;SDS011;5882;48.818;9.114;2023-08-17T13:04:27;3.33;;;3.13;;
11651;SDS011;5882;48.818;9.114;2023-08-17T13:07:16;3.67;;;3.38;;
11651;SDS011;5882;48.818;9.114;2023-08-17T13:10:02;3.63;;;3.33;;
11651;SDS011;5882;48.818;9.114;2023-08-17T13:12:47;3.67;;;3.38;;
11651;SDS011;5882;48.818;9.114;2023-08-17T13:15:32;3.95;;;3.65;;
11651;SDS011;5882;48.818;9.114;2023-08-17T13:18:18;3.80;;;3.50;;
11651;SDS011;5882;48.818;9.114;2023-08-17T13:21:03;4.15;;;3.80;;
11651;SDS011;5882;48.818;9.114;2023-08-17T13:23:50;3.92;;;3.63;;
11651;SDS011;5882;48.818;9.114;2023-08-17T13:26:35;4.50;;;3.80;;
11651;SDS011;5882;48.818;9.114;2023-08-17T13:29:27;4.65;;;4.25;;
11651;SDS011;5882;48.818;9.114;2023-08-17T13:32:15;4.30;;;3.95;;
11651;SDS011;5882;48.818;9.114;2023-08-17T13:35:01;5.00;;;4.60;;
11651;SDS011;5882;48.818;9.114;2023-08-17T13:37:49;5.05;;;4.65;;
11651;SDS011;5882;48.818;9.114;2023-08-17T13:40:37;4.13;;;3.83;;
11651;SDS011;5882;48.818;9.114;2023-08-17T13:43:22;4.72;;;4.32;;
11651;SDS011;5882;48.818;9.114;2023-08-17T13:46:12;4.25;;;3.85;;
11651;SDS011;5882;48.818;9.114;2023-08-17T13:48:57;4.80;;;4.40;;
11651;SDS011;5882;48.818;9.114;2023-08-17T13:51:42;4.13;;;3.83;;
11651;SDS011;5882;48.818;9.114;2023-08-17T13:54:31;4.13;;;3.83;;
11651;SDS011;5882;48.818;9.114;2023-08-17T13:57:18;4.95;;;4.55;;
11651;SDS011;5882;48.818;9.114;2023-08-17T14:00:03;4.47;;;4.07;;
11651;SDS011;5882;48.818;9.114;2023-08-17T14:02:49;5.00;;;4.60;;
11651;SDS011;5882;48.818;9.114;2023-08-17T14:05:36;5.20;;;4.70;;
11651;SDS011;5882;48.818;9.114;2023-08-17T14:08:23;5.07;;;4.63;;
11651;SDS011;5882;48.818;9.114;2023-08-17T14:11:08;5.57;;;4.78;;
11651;SDS011;5882;48.818;9.114;2023-08-17T14:13:54;4.43;;;4.07;;
11651;SDS011;5882;48.818;9.114;2023-08-17T14:16:39;4.78;;;4.38;;
11651;SDS011;5882;48.818;9.114;2023-08-17T14:19:25;4.78;;;4.38;;
11651;SDS011;5882;48.818;9.114;2023-08-17T14:22:10;5.40;;;4.90;;
11651;SDS011;5882;48.818;9.114;2023-08-17T14:24:55;5.45;;;4.95;;
11651;SDS011;5882;48.818;9.114;2023-08-17T14:27:40;5.10;;;4.60;;
11651;SDS011;5882;48.818;9.114;2023-08-17T14:30:29;5.05;;;4.22;;
11651;SDS011;5882;48.818;9.114;2023-08-17T14:33:15;6.15;;;4.38;;
11651;SDS011;5882;48.818;9.114;2023-08-17T14:36:00;4.38;;;4.05;;
11651;SDS011;5882;48.818;9.114;2023-08-17T14:38:45;4.65;;;4.25;;
11651;SDS011;5882;48.818;9.114;2023-08-17T14:41:30;4.07;;;3.78;;
11651;SDS011;5882;48.818;9.114;2023-08-17T14:44:16;5.18;;;4.70;;
11651;SDS011;5882;48.818;9.114;2023-08-17T14:47:03;4.90;;;4.50;;
11651;SDS011;5882;48.818;9.114;2023-08-17T14:49:50;4.72;;;4.30;;
11651;SDS011;5882;48.818;9.114;2023-08-17T14:52:37;4.85;;;4.22;;
11651;SDS011;5882;48.818;9.114;2023-08-17T14:55:26;5.25;;;4.75;;
11651;SDS011;5882;48.818;9.114;2023-08-17T14:58:11;5.03;;;4.22;;
11651;SDS011;5882;48.818;9.114;2023-08-17T15:01:00;4.70;;;4.30;;
11651;SDS011;5882;48.818;9.114;2023-08-17T15:03:48;5.13;;;4.57;;
11651;SDS011;5882;48.818;9.114;2023-08-17T15:06:33;4.72;;;4.32;;
11651;SDS011;5882;48.818;9.114;2023-08-17T15:09:18;4.95;;;4.55;;
11651;SDS011;5882;48.818;9.114;2023-08-17T15:12:04;4.65;;;4.35;;
11651;SDS011;5882;48.818;9.114;2023-08-17T15:14:49;4.53;;;4.13;;
11651;SDS011;5882;48.818;9.114;2023-08-17T15:17:34;5.10;;;4.70;;
11651;SDS011;5882;48.818;9.114;2023-08-17T15:20:21;4.15;;;3.85;;
11651;SDS011;5882;48.818;9.114;2023-08-17T15:23:06;4.63;;;4.10;;
11651;SDS011;5882;48.818;9.114;2023-08-17T15:25:51;4.57;;;4.15;;
11651;SDS011;5882;48.818;9.114;2023-08-17T15:28:37;4.50;;;3.80;;
11651;SDS011;5882;48.818;9.114;2023-08-17T15:31:22;4.22;;;3.92;;
11651;SDS011;5882;48.818;9.114;2023-08-17T15:34:08;5.05;;;4.65;;
11651;SDS011;5882;48.818;9.114;2023-08-17T15:36:54;4.82;;;4.43;;
11651;SDS011;5882;48.818;9.114;2023-08-17T15:39:40;5.55;;;4.30;;
11651;SDS011;5882;48.818;9.114;2023-08-17T15:42:28;4.60;;;4.20;;
11651;SDS011;5882;48.818;9.114;2023-08-17T15:45:15;3.78;;;3.47;;
11651;SDS011;5882;48.818;9.114;2023-08-17T15:48:01;4.63;;;4.22;;
11651;SDS011;5882;48.818;9.114;2023-08-17T15:50:48;4.32;;;4.03;;
11651;SDS011;5882;48.818;9.114;2023-08-17T15:53:35;4.50;;;4.03;;
11651;SDS011;5882;48.818;9.114;2023-08-17T15:56:23;4.05;;;3.75;;
11651;SDS011;5882;48.818;9.114;2023-08-17T15:59:13;4.15;;;3.83;;
11651;SDS011;5882;48.818;9.114;2023-08-17T16:02:00;3.72;;;3.40;;
11651;SDS011;5882;48.818;9.114;2023-08-17T16:04:48;4.00;;;3.70;;
11651;SDS011;5882;48.818;9.114;2023-08-17T16:07:36;4.07;;;3.67;;
11651;SDS011;5882;48.818;9.114;2023-08-17T16:10:23;3.67;;;3.38;;
11651;SDS011;5882;48.818;9.114;2023-08-17T16:13:08;3.72;;;3.42;;
11651;SDS011;5882;48.818;9.114;2023-08-17T16:15:53;3.50;;;3.30;;
11651;SDS011;5882;48.818;9.114;2023-08-17T16:18:39;3.67;;;3.38;;
11651;SDS011;5882;48.818;9.114;2023-08-17T16:21:24;4.00;;;3.67;;
11651;SDS011;5882;48.818;9.114;2023-08-17T16:24:10;4.28;;;3.78;;
11651;SDS011;5882;48.818;9.114;2023-08-17T16:26:56;3.67;;;3.03;;
11651;SDS011;5882;48.818;9.114;2023-08-17T16:29:41;3.92;;;3.65;;
11651;SDS011;5882;48.818;9.114;2023-08-17T16:32:26;4.00;;;3.70;;
11651;SDS011;5882;48.818;9.114;2023-08-17T16:35:12;4.25;;;3.85;;
11651;SDS011;5882;48.818;9.114;2023-08-17T16:37:57;4.70;;;4.30;;
11651;SDS011;5882;48.818;9.114;2023-08-17T16:40:42;3.63;;;3.33;;
11651;SDS011;5882;48.818;9.114;2023-08-17T16:43:29;3.22;;;3.03;;
11651;SDS011;5882;48.818;9.114;2023-08-17T16:46:14;3.40;;;3.20;;
11651;SDS011;5882;48.818;9.114;2023-08-17T16:49:00;3.67;;;3.47;;
11651;SDS011;5882;48.818;9.114;2023-08-17T16:51:45;3.90;;;3.60;;
11651;SDS011;5882;48.818;9.114;2023-08-17T16:54:30;4.05;;;3.58;;
11651;SDS011;5882;48.818;9.114;2023-08-17T16:57:15;3.50;;;3.20;;
11651;SDS011;5882;48.818;9.114;2023-08-17T17:00:02;4.10;;;3.80;;
11651;SDS011;5882;48.818;9.114;2023-08-17T17:02:48;3.53;;;3.22;;